Pagina principale
METAR-TAF:

METAR-TAF

Aeroporti :

Aeroporto Internazionale di Damasco

Damasco, Siria

latitudine: 33-25N, longitudine: 036-31E, altezza: 608 m

Osservazione

Il bollettino è stato emesso 55 minuti fa, alle 13:00 UTC
Vento 4 kt da nord-ovest
Temperature 34°C
Umidità 15%
Pressione 1011 hPa
Visibilità 10 km o più
Nubi sparse ad un'altezza di 3000 ft

METAR: OSDI 241300Z 32004KT 9999 SCT030 34/04 Q1011

Ora: 16:55 (13:55 UTC)

Previsione

Il bollettino è stato emesso 3 ore e 55 minuti fa, alle 10:00 UTC
Previsione valida dal 24 alle 12 UTC al 25 alle 18 UTC
Vento 10 kt da sud-ovest
Visibilità 10 km o più
Poco nuvoloso ad un'altezza di 3000 ft
Temporaneamente
dal 24 alle 12 UTC al 24 alle 18 UTC
Vento 10 kt da ovest con raffiche fino a 20 kt
Visibilità: 8000 m
Poco nuvoloso ad un'altezza di 3000 ft
Nubi sparse ad un'altezza di 10000 ft

TAF: OSDI 241000Z 2412/2518 22010KT 9999 FEW030 TEMPO 2412/2418 28010G20KT 8000 FEW030 SCT100

Osservazioni e previsioni meteorologiche di più di 4000 aeroporti (messaggi METAR e TAF).

Le stazioni disponibili sono rappresentate dai dischi gialli e rossi sulla carta.

Puntare il mouse per vedere il nome della stazione.

Clicca sopra per visualizzare le osservazioni e previsioni meteorologiche.

Per cambiare la mappa : fare clic sui pulsanti verdi con una croce nera per ingrandire, il pulsante verde con un trattino per diminuire, o sulla freccia verde per le mappe adiacenti.


METAR-TAF: